Data for 10/10/2008

Time Sea-Level Adjusted Pressure Absolute Pressure Temperature Relative Humidity Dew Point   
(mb) (inHg) (mb) (inHg) (C) (F) (%) (C) (F)
00:05 1014 29.94 843 24.89 -0.9 30.5 89 -2.5 27.5
00:10 1014 29.94 843 24.89 -1 30.2 87 -2.9 26.8
00:15 1014 29.94 843 24.89 -0.9 30.3 88 -2.7 27.2
00:20 1014 29.94 843 24.89 -1 30.2 91 -2.4 27.8
00:25 1013 29.91 843 24.89 -1.2 29.8 92 -2.4 27.7
00:30 1013 29.91 843 24.89 -1.3 29.6 92 -2.4 27.6
00:35 1013 29.91 843 24.89 -1.3 29.7 92 -2.5 27.5
00:40 1013 29.91 843 24.89 -1.3 29.7 91 -2.5 27.5
00:45 1013 29.91 843 24.89 -1.2 29.8 90 -2.7 27.1
00:50 1013 29.91 843 24.89 -1.1 30 87 -2.9 26.8
00:55 1013 29.91 843 24.89 -0.9 30.3 87 -2.9 26.8
01:00 1013 29.91 843 24.89 -0.9 30.4 86 -3 26.7
01:05 1013 29.91 843 24.89 -0.9 30.4 85 -3.2 26.3
01:10 1013 29.91 843 24.89 -0.8 30.6 83 -3.4 25.9
01:15 1013 29.91 843 24.89 -0.8 30.6 83 -3.3 26
01:20 1013 29.91 843 24.89 -0.8 30.6 83 -3.3 26
01:25 1014 29.94 843 24.89 -0.8 30.6 82 -3.4 25.9
01:30 1013 29.91 843 24.89 -0.8 30.6 82 -3.5 25.7
01:35 1013 29.91 843 24.89 -0.7 30.7 81 -3.6 25.5
01:40 1013 29.91 843 24.89 -0.6 30.9 80 -3.7 25.4
01:45 1014 29.94 843 24.89 -0.6 30.9 79 -3.8 25.1
01:50 1014 29.94 843 24.89 -0.5 31.1 79 -3.7 25.4
01:55 1013 29.91 843 24.89 -0.6 31 81 -3.5 25.8
02:00 1014 29.94 843 24.89 -0.6 30.8 81 -3.4 25.8
02:05 1014 29.94 843 24.89 -0.7 30.8 81 -3.5 25.7
02:10 1014 29.94 843 24.89 -0.6 30.9 80 -3.7 25.4
02:15 1014 29.94 843 24.89 -0.6 31 80 -3.5 25.7
02:20 1014 29.94 843 24.89 -0.5 31 80 -3.6 25.5
02:25 1014 29.94 843 24.89 -0.5 31 82 -3.3 26.1
02:30 1014 29.94 843 24.89 -0.6 31 82 -3.2 26.2
02:35 1014 29.94 843 24.89 -0.7 30.8 85 -2.8 26.9
02:40 1014 29.94 843 24.89 -0.8 30.6 85 -3 26.5
02:45 1014 29.94 843 24.89 -0.8 30.6 85 -3.1 26.5
02:50 1014 29.94 843 24.89 -0.7 30.7 85 -3 26.6
02:55 1014 29.94 843 24.89 -0.7 30.7 84 -3.1 26.4
03:00 1013 29.91 843 24.89 -0.6 30.9 81 -3.4 25.9
03:05 1014 29.94 843 24.89 -0.5 31.1 81 -3.4 25.9
03:10 1014 29.94 843 24.89 -0.6 30.9 81 -3.4 25.9
03:15 1014 29.94 843 24.89 -0.6 30.9 82 -3.4 25.9
03:20 1014 29.94 843 24.89 -0.6 30.9 82 -3.3 26
03:25 1014 29.94 843 24.89 -0.7 30.8 82 -3.4 25.9
03:30 1014 29.94 843 24.89 -0.7 30.8 82 -3.3 26
03:35 1014 29.94 843 24.89 -0.8 30.6 83 -3.3 26.1
03:40 1014 29.94 843 24.89 -0.8 30.6 82 -3.5 25.7
03:45 1014 29.94 843 24.89 -0.8 30.6 82 -3.5 25.7
03:50 1014 29.94 843 24.89 -0.8 30.6 81 -3.7 25.4
03:55 1014 29.94 843 24.89 -0.7 30.7 78 -4 24.7
04:00 1014 29.94 843 24.89 -0.7 30.7 79 -3.8 25.1
04:05 1014 29.94 843 24.89 -0.8 30.6 78 -4.1 24.5
04:10 1014 29.94 843 24.89 -0.8 30.6 78 -4.2 24.4
04:15 1014 29.94 843 24.89 -0.8 30.5 77 -4.3 24.3
04:20 1014 29.94 843 24.89 -0.9 30.4 77 -4.5 24
04:25 1014 29.94 843 24.89 -0.9 30.5 77 -4.5 24
04:30 1014 29.94 843 24.89 -0.9 30.3 78 -4.3 24.2
04:35 1014 29.94 843 24.89 -1 30.1 78 -4.4 24
04:40 1014 29.94 843 24.89 -1.1 30 78 -4.4 24
04:45 1014 29.94 843 24.89 -1.2 29.9 78 -4.5 23.9
04:50 1014 29.94 843 24.89 -1.2 29.8 78 -4.5 23.8
04:55 1014 29.94 843 24.89 -1.3 29.7 79 -4.5 23.9
05:00 1014 29.94 843 24.89 -1.3 29.6 79 -4.5 23.9
05:05 1014 29.94 844 24.92 -1.4 29.5 81 -4.3 24.3
05:10 1014 29.94 844 24.92 -1.5 29.3 81 -4.3 24.3
05:15 1014 29.94 844 24.92 -1.6 29.1 83 -4.1 24.6
05:20 1014 29.94 844 24.92 -1.6 29.1 83 -4.2 24.5
05:25 1014 29.94 844 24.92 -1.6 29.1 82 -4.3 24.2
05:30 1014 29.94 844 24.92 -1.6 29.2 81 -4.4 24
05:35 1014 29.94 844 24.92 -1.5 29.3 79 -4.7 23.5
05:40 1014 29.94 844 24.92 -1.4 29.4 79 -4.6 23.7
05:45 1014 29.94 844 24.92 -1.5 29.3 79 -4.7 23.5
05:50 1014 29.94 844 24.92 -1.5 29.3 79 -4.7 23.5
05:55 1015 29.97 844 24.92 -1.5 29.3 78 -4.8 23.3
06:00 1014 29.94 844 24.92 -1.5 29.3 78 -4.9 23.2
06:05 1015 29.97 844 24.92 -1.5 29.3 77 -5 23
06:10 1015 29.97 844 24.92 -1.5 29.3 76 -5.2 22.7
06:15 1015 29.97 844 24.92 -1.5 29.3 77 -5 23.1
06:20 1015 29.97 844 24.92 -1.6 29.1 79 -4.8 23.4
06:25 1015 29.97 844 24.92 -1.7 28.9 80 -4.7 23.5
06:30 1015 29.97 844 24.92 -1.7 28.9 79 -4.8 23.3
06:35 1015 29.97 844 24.92 -1.7 28.9 80 -4.7 23.5
06:40 1015 29.97 844 24.92 -1.7 28.9 82 -4.5 23.9
06:45 1015 29.97 844 24.92 -1.8 28.8 82 -4.5 23.9
06:50 1015 29.97 844 24.92 -1.8 28.7 82 -4.5 23.9
06:55 1015 29.97 844 24.92 -1.8 28.7 83 -4.3 24.2
07:00 1015 29.97 844 24.92 -2 28.5 85 -4.2 24.5
07:05 1015 29.97 844 24.92 -2 28.4 84 -4.3 24.2
07:10 1015 29.97 844 24.92 -2 28.5 85 -4.2 24.4
07:15 1015 29.97 844 24.92 -2 28.4 84 -4.3 24.3
07:20 1015 29.97 844 24.92 -1.9 28.5 83 -4.5 24
07:25 1015 29.97 844 24.92 -2 28.5 84 -4.2 24.4
07:30 1015 29.97 845 24.95 -2 28.4 85 -4.2 24.4
07:35 1015 29.97 845 24.95 -2.1 28.2 86 -4.1 24.5
07:40 1015 29.97 845 24.95 -2.1 28.3 85 -4.3 24.3
07:45 1015 29.97 845 24.95 -2 28.4 84 -4.3 24.3
07:50 1016 30 845 24.95 -2 28.4 85 -4.2 24.4
07:55 1016 30 845 24.95 -2.1 28.3 86 -4.2 24.5
08:00 1016 30 845 24.95 -2 28.4 83 -4.4 24
08:05 1016 30 845 24.95 -2 28.5 84 -4.2 24.4
08:10 1016 30 845 24.95 -2 28.3 86 -4.1 24.5
08:15 1016 30 845 24.95 -2.1 28.3 85 -4.2 24.5
08:20 1016 30 845 24.95 -2 28.4 85 -4.2 24.5
08:25 1016 30 845 24.95 -2 28.5 84 -4.3 24.2
08:30 1016 30 845 24.95 -2 28.4 85 -4.2 24.4
08:35 1016 30 845 24.95 -2.1 28.3 88 -3.9 25.1
08:40 1016 30 845 24.95 -2.2 28.1 88 -4 24.8
08:45 1016 30 845 24.95 -2.2 28.1 88 -4 24.9
08:50 1016 30 845 24.95 -2.2 28.1 89 -3.7 25.3
08:55 1016 30 845 24.95 -2.1 28.2 87 -3.9 24.9
09:00 1016 30 846 24.98 -2.1 28.3 86 -4.1 24.7
09:05 1016 30 846 24.98 -2 28.4 87 -3.9 25
09:10 1017 30.03 846 24.98 -1.9 28.5 86 -4 24.7
09:15 1017 30.03 846 24.98 -1.8 28.7 85 -4 24.8
09:20 1017 30.03 846 24.98 -1.8 28.7 85 -4 24.7
09:25 1017 30.03 846 24.98 -1.7 28.9 84 -4.1 24.6
09:30 1017 30.03 846 24.98 -1.5 29.2 82 -4.2 24.5
09:35 1017 30.03 846 24.98 -1.5 29.4 81 -4.3 24.3
09:40 1017 30.03 846 24.98 -1.4 29.4 81 -4.3 24.3
09:45 1017 30.03 846 24.98 -1.3 29.7 79 -4.6 23.8
09:50 1017 30.03 846 24.98 -1.2 29.8 79 -4.4 24
09:55 1017 30.03 846 24.98 -1.2 29.9 80 -4.1 24.5
10:00 1017 30.03 846 24.98 -1.1 30 80 -4.1 24.6
10:05 1017 30.03 846 24.98 -1.1 30.1 79 -4.2 24.4
10:10 1017 30.03 846 24.98 -1.1 30.1 78 -4.3 24.2
10:15 1017 30.03 846 24.98 -1 30.3 78 -4.3 24.2
10:20 1017 30.03 846 24.98 -0.9 30.4 76 -4.6 23.7
10:25 1017 30.03 846 24.98 -0.9 30.5 77 -4.3 24.2
10:30 1017 30.03 846 24.98 -0.7 30.7 75 -4.6 23.7
10:35 1017 30.03 846 24.98 -0.6 30.9 76 -4.4 24.1
10:40 1017 30.03 846 24.98 -0.5 31.1 74 -4.6 23.6
10:45 1017 30.03 846 24.98 -0.8 30.6 78 -4.2 24.4
10:50 1017 30.03 846 24.98 -1.1 30.1 77 -4.6 23.8
10:55 1017 30.03 846 24.98 -1.2 29.8 78 -4.6 23.7
11:00 1017 30.03 846 24.98 -1.2 29.8 77 -4.7 23.5
11:05 1017 30.03 846 24.98 -1.1 30 77 -4.7 23.6
11:10 1017 30.03 847 25.01 -1 30.2 77 -4.6 23.8
11:15 1017 30.03 847 25.01 -0.8 30.6 75 -4.6 23.7
11:20 1017 30.03 847 25.01 -0.9 30.4 74 -4.9 23.2
11:25 1018 30.06 847 25.01 -1 30.2 78 -4.4 24
11:30 1018 30.06 847 25.01 -1.3 29.7 79 -4.4 24
11:35 1018 30.06 847 25.01 -1.5 29.4 79 -4.6 23.7
11:40 1018 30.06 847 25.01 -1.4 29.5 79 -4.6 23.7
11:45 1018 30.06 847 25.01 -1.2 29.8 78 -4.5 23.8
11:50 1018 30.06 847 25.01 -1.3 29.6 80 -4.4 24.1
11:55 1018 30.06 847 25.01 -1.3 29.7 79 -4.5 23.9
12:00 1018 30.06 847 25.01 -1.2 29.8 80 -4.3 24.2
12:05 1018 30.06 847 25.01 -1.6 29.1 80 -4.6 23.8
12:10 1018 30.06 847 25.01 -1.7 29 80 -4.7 23.5
12:15 1018 30.06 847 25.01 -1.6 29.1 79 -4.9 23.2
12:20 1018 30.06 847 25.01 -1.7 28.9 79 -4.9 23.1
12:25 1018 30.06 847 25.01 -1.7 28.9 78 -5 23
12:30 1018 30.06 847 25.01 -1.7 29 79 -4.8 23.4
12:35 1018 30.06 847 25.01 -1.5 29.3 78 -4.9 23.1
12:40 1018 30.06 847 25.01 -1.6 29.2 78 -5 23.1
12:45 1018 30.06 847 25.01 -1.7 29 78 -5 23
12:50 1018 30.06 847 25.01 -1.6 29.1 77 -5.1 22.9
12:55 1018 30.06 847 25.01 -1.7 29 78 -5 23
13:00 1018 30.06 847 25.01 -1.6 29.1 77 -5.2 22.7
13:05 1018 30.06 847 25.01 -1.6 29.1 77 -5.1 22.7
13:10 1018 30.06 847 25.01 -1.6 29.1 76 -5.2 22.6
13:15 1018 30.06 847 25.01 -1.5 29.2 76 -5.2 22.7
13:20 1018 30.06 847 25.01 -1.6 29.1 75 -5.4 22.3
13:25 1018 30.06 847 25.01 -1.6 29.2 75 -5.4 22.4
13:30 1018 30.06 847 25.01 -1.6 29.1 75 -5.5 22.1
13:35 1018 30.06 847 25.01 -1.7 28.9 75 -5.6 22
13:40 1018 30.06 847 25.01 -1.6 29.2 74 -5.6 21.9
13:45 1018 30.06 847 25.01 -1.4 29.5 73 -5.6 22
13:50 1018 30.06 847 25.01 -1.1 30.1 71 -5.6 21.9
13:55 1018 30.06 847 25.01 -0.8 30.6 69 -5.7 21.7
14:00 1018 30.06 847 25.01 -0.6 31 68 -5.7 21.7
14:05 1018 30.06 847 25.01 -0.5 31.1 68 -5.6 21.9
14:10 1018 30.06 847 25.01 -0.6 31 69 -5.6 21.9
14:15 1018 30.06 847 25.01 -0.7 30.8 69 -5.7 21.8
14:20 1018 30.06 847 25.01 -0.5 31 69 -5.5 22
14:25 1018 30.06 847 25.01 -0.5 31 68 -5.7 21.8
14:30 1018 30.06 847 25.01 -0.4 31.2 66 -6 21.2
14:35 1018 30.06 847 25.01 -0.5 31.1 68 -5.7 21.8
14:40 1018 30.06 847 25.01 -0.7 30.7 69 -5.7 21.7
14:45 1018 30.06 847 25.01 -0.3 31.4 67 -5.8 21.6
14:50 1018 30.06 847 25.01 -0.4 31.4 67 -5.7 21.8
14:55 1018 30.06 847 25.01 -0.6 31 68 -5.7 21.7
15:00 1018 30.06 847 25.01 -0.5 31.1 69 -5.5 22
15:05 1018 30.06 847 25.01 -0.8 30.6 69 -5.7 21.7
15:10 1018 30.06 847 25.01 -0.8 30.5 69 -5.8 21.5
15:15 1018 30.06 847 25.01 -0.9 30.3 69 -5.9 21.4
15:20 1018 30.06 848 25.04 -0.9 30.4 68 -6 21.2
15:25 1018 30.06 848 25.04 -0.9 30.4 68 -6.1 21.1
15:30 1019 30.09 848 25.04 -0.8 30.6 68 -5.9 21.5
15:35 1019 30.09 848 25.04 -1 30.2 71 -5.6 21.9
15:40 1019 30.09 848 25.04 -1.1 30 71 -5.8 21.6
15:45 1019 30.09 848 25.04 -1.1 29.9 71 -5.8 21.6
15:50 1019 30.09 848 25.04 -1.4 29.5 72 -5.9 21.4
15:55 1019 30.09 848 25.04 -1.6 29.1 72 -6.1 21
16:00 1019 30.09 848 25.04 -1.6 29.2 70 -6.3 20.7
16:05 1019 30.09 848 25.04 -1.7 29 71 -6.2 20.9
16:10 1019 30.09 848 25.04 -1.7 28.9 72 -6.1 21
16:15 1019 30.09 848 25.04 -1.7 28.9 72 -6.1 21.1
16:20 1019 30.09 849 25.07 -1.7 28.9 74 -5.7 21.7
16:25 1019 30.09 849 25.07 -1.7 29 75 -5.6 22
16:30 1019 30.09 848 25.04 -1.7 28.9 75 -5.6 21.9
16:35 1019 30.09 848 25.04 -1.7 28.9 76 -5.4 22.3
16:40 1019 30.09 848 25.04 -1.8 28.8 76 -5.5 22
16:45 1019 30.09 848 25.04 -1.9 28.6 76 -5.5 22.1
16:50 1019 30.09 849 25.07 -1.9 28.6 78 -5.3 22.5
16:55 1019 30.09 848 25.04 -1.8 28.8 78 -5.2 22.6
17:00 1019 30.09 848 25.04 -1.9 28.6 78 -5.2 22.7
17:05 1019 30.09 849 25.07 -1.9 28.5 79 -5.2 22.7
17:10 1020 30.12 849 25.07 -1.8 28.7 79 -5.1 22.8
17:15 1020 30.12 849 25.07 -2 28.4 79 -5.2 22.7
17:20 1020 30.12 849 25.07 -2.1 28.2 80 -5.1 22.9
17:25 1020 30.12 849 25.07 -2.2 28.1 79 -5.3 22.5
17:30 1020 30.12 849 25.07 -2.2 28 81 -5.1 22.8
17:35 1020 30.12 849 25.07 -2.3 27.8 81 -5.1 22.8
17:40 1020 30.12 849 25.07 -2.5 27.6 82 -5.1 22.7
17:45 1020 30.12 849 25.07 -2.5 27.5 83 -5.1 22.9
17:50 1020 30.12 849 25.07 -2.5 27.5 82 -5.1 22.8
17:55 1020 30.12 849 25.07 -2.5 27.5 82 -5.2 22.7
18:00 1020 30.12 849 25.07 -2.5 27.4 83 -5 23
18:05 1020 30.12 849 25.07 -2.6 27.3 84 -5 23
18:10 1020 30.12 849 25.07 -2.7 27.2 85 -4.9 23.2
18:15 1020 30.12 849 25.07 -2.7 27.1 85 -4.9 23.2
18:20 1020 30.12 849 25.07 -2.7 27.1 85 -4.9 23.2
18:25 1020 30.12 849 25.07 -2.8 27 86 -4.8 23.4
18:30 1020 30.12 849 25.07 -2.7 27.1 86 -4.8 23.3
18:35 1020 30.12 849 25.07 -2.8 27 86 -4.9 23.2
18:40 1020 30.12 849 25.07 -2.8 26.9 87 -4.6 23.6
18:45 1020 30.12 850 25.1 -2.9 26.7 87 -4.9 23.2
18:50 1020 30.12 849 25.07 -2.9 26.8 87 -4.8 23.3
18:55 1020 30.12 850 25.1 -2.9 26.8 88 -4.6 23.7
19:00 1020 30.12 850 25.1 -2.9 26.7 88 -4.6 23.8
19:05 1020 30.12 850 25.1 -2.9 26.7 90 -4.3 24.2
19:10 1020 30.12 850 25.1 -3 26.5 91 -4.3 24.2
19:15 1020 30.12 849 25.07 -3.1 26.4 92 -4.3 24.3
19:20 1020 30.12 850 25.1 -3.1 26.3 92 -4.2 24.4
19:25 1021 30.15 850 25.1 -3.2 26.3 92 -4.2 24.4
19:30 1021 30.15 850 25.1 -3.2 26.3 93 -4.1 24.6
19:35 1021 30.15 850 25.1 -3.2 26.2 93 -4.1 24.6
19:40 1021 30.15 850 25.1 -3.2 26.2 94 -4.1 24.7
19:45 1021 30.15 850 25.1 -3.2 26.3 94 -4 24.8
19:50 1021 30.15 850 25.1 -3.2 26.2 94 -4 24.7
19:55 1021 30.15 850 25.1 -3.2 26.2 95 -4 24.9
20:00 1021 30.15 850 25.1 -3.3 26.1 95 -3.9 25
20:05 1021 30.15 850 25.1 -3.2 26.2 95 -4 24.9
20:10 1021 30.15 850 25.1 -3.3 26.1 95 -3.9 25
20:15 1021 30.15 850 25.1 -3.2 26.2 95 -3.9 25
20:20 1021 30.15 850 25.1 -3.2 26.3 94 -4 24.9
20:25 1021 30.15 850 25.1 -3.1 26.3 93 -4.1 24.5
20:30 1021 30.15 850 25.1 -3.1 26.5 91 -4.4 24.1
20:35 1021 30.15 850 25.1 -3 26.6 91 -4.3 24.2
20:40 1021 30.15 850 25.1 -3 26.6 90 -4.4 24.1
20:45 1021 30.15 850 25.1 -2.9 26.7 87 -4.8 23.4
20:50 1021 30.15 850 25.1 -2.9 26.8 88 -4.7 23.6
20:55 1020 30.12 850 25.1 -2.9 26.8 88 -4.6 23.8
21:00 1021 30.15 850 25.1 -2.9 26.7 89 -4.6 23.8
21:05 1021 30.15 850 25.1 -2.9 26.8 88 -4.7 23.6
21:10 1020 30.12 850 25.1 -2.9 26.8 89 -4.5 24
21:15 1020 30.12 850 25.1 -2.9 26.8 88 -4.7 23.6
21:20 1021 30.15 850 25.1 -2.9 26.8 87 -4.7 23.5
21:25 1020 30.12 850 25.1 -2.9 26.7 88 -4.6 23.7
21:30 1021 30.15 850 25.1 -2.9 26.7 89 -4.6 23.8
21:35 1021 30.15 850 25.1 -3 26.6 89 -4.6 23.8
21:40 1021 30.15 850 25.1 -3 26.7 90 -4.3 24.2
21:45 1021 30.15 850 25.1 -3 26.5 91 -4.3 24.3
21:50 1021 30.15 850 25.1 -3 26.5 91 -4.3 24.3
21:55 1021 30.15 850 25.1 -3.1 26.5 92 -4.1 24.6
22:00 1021 30.15 850 25.1 -3.1 26.4 93 -4.1 24.6
22:05 1021 30.15 850 25.1 -3.1 26.4 93 -4.1 24.7
22:10 1021 30.15 850 25.1 -3.1 26.4 94 -3.9 24.9
22:15 1021 30.15 850 25.1 -3.1 26.4 93 -4.1 24.7
22:20 1021 30.15 850 25.1 -3.1 26.5 94 -3.9 25
22:25 1021 30.15 850 25.1 -3 26.5 92 -4.1 24.5
22:30 1021 30.15 850 25.1 -3 26.7 92 -4 24.7
22:35 1021 30.15 850 25.1 -3 26.7 93 -4 24.9
22:40 1021 30.15 850 25.1 -3 26.6 92 -4.1 24.6
22:45 1021 30.15 850 25.1 -3 26.6 91 -4.3 24.2
22:50 1021 30.15 850 25.1 -3 26.7 89 -4.5 23.8
22:55 1021 30.15 850 25.1 -3 26.7 89 -4.5 24
23:00 1021 30.15 850 25.1 -3 26.6 89 -4.6 23.8
23:05 1021 30.15 850 25.1 -3 26.7 90 -4.4 24.1
23:10 1021 30.15 850 25.1 -3 26.6 92 -4.1 24.6
23:15 1021 30.15 850 25.1 -3 26.6 92 -4.1 24.6
23:20 1021 30.15 850 25.1 -3 26.6 89 -4.5 23.9
23:25 1021 30.15 850 25.1 -3 26.6 89 -4.6 23.8
23:30 1021 30.15 850 25.1 -3 26.6 89 -4.6 23.8
23:35 1021 30.15 850 25.1 -3.1 26.5 91 -4.4 24.1
23:40 1021 30.15 850 25.1 -3.1 26.4 91 -4.4 24.1
23:45 1021 30.15 850 25.1 -3.1 26.4 91 -4.3 24.2
23:50 1021 30.15 850 25.1 -3.2 26.3 92 -4.2 24.4
23:55 1021 30.15 850 25.1 -3.2 26.3 92 -4.2 24.4
24:00 1021 30.15 850 25.1 -3.2 26.2 93 -4.1 24.5